createdAt,value
2023-01-08T00:01:19.965Z,75.96
2023-01-08T00:03:46.827Z,75.96
2023-01-08T00:06:17.616Z,76.44
2023-01-08T00:08:45.084Z,76.44
2023-01-08T00:11:12.398Z,76.81
2023-01-08T00:13:39.025Z,76.72
2023-01-08T00:16:06.851Z,76.97
2023-01-08T00:18:33.987Z,76.92
2023-01-08T00:21:00.996Z,77.11
2023-01-08T00:23:27.879Z,77.39
2023-01-08T00:25:54.626Z,77.51
2023-01-08T00:28:21.499Z,77.67
2023-01-08T00:30:48.801Z,77.97
2023-01-08T00:33:15.835Z,78.05
2023-01-08T00:35:42.994Z,77.57
2023-01-08T00:38:10.104Z,78.58
2023-01-08T00:40:37.056Z,77.67
2023-01-08T00:43:04.179Z,78.18
2023-01-08T00:45:31.042Z,78.21
2023-01-08T00:47:58.112Z,78.17
2023-01-08T00:50:25.563Z,77.67
2023-01-08T00:52:52.557Z,77.27
2023-01-08T00:55:19.251Z,77.89
2023-01-08T00:57:46.236Z,77.73
2023-01-08T01:00:15.278Z,78.01
2023-01-08T01:02:43.873Z,78.47
2023-01-08T01:05:15.221Z,78.16
2023-01-08T01:07:43.537Z,78.40
2023-01-08T01:10:12.763Z,78.19
2023-01-08T01:12:41.097Z,78.38
2023-01-08T01:15:15.503Z,78.14
2023-01-08T01:17:44.655Z,78.42
2023-01-08T01:20:15.248Z,78.93
2023-01-08T01:22:42.772Z,78.41
2023-01-08T01:25:09.969Z,79.27
2023-01-08T01:27:37.065Z,79.37
2023-01-08T01:30:05.000Z,78.21
2023-01-08T01:32:33.462Z,78.16
2023-01-08T01:35:00.020Z,77.97
2023-01-08T01:37:27.844Z,78.09
2023-01-08T01:39:56.109Z,78.68
2023-01-08T01:42:41.042Z,78.73
2023-01-08T01:45:22.398Z,79.03
2023-01-08T01:48:06.548Z,78.71
2023-01-08T01:50:42.649Z,78.57
2023-01-08T01:53:12.886Z,78.90
2023-01-08T01:55:43.211Z,79.30
2023-01-08T01:58:19.026Z,79.55
2023-01-08T02:00:46.610Z,80.12
2023-01-08T02:03:14.737Z,79.80
2023-01-08T02:05:53.152Z,79.90
2023-01-08T02:08:41.826Z,79.61
2023-01-08T02:11:12.292Z,80.02
2023-01-08T02:13:44.228Z,79.18
2023-01-08T02:16:15.019Z,79.68
2023-01-08T02:18:52.701Z,79.64
2023-01-08T02:21:33.124Z,80.64
2023-01-08T02:24:17.696Z,79.96
2023-01-08T02:26:46.514Z,79.83
2023-01-08T02:29:17.829Z,80.47
2023-01-08T02:31:44.675Z,81.33
2023-01-08T02:34:12.757Z,80.84
2023-01-08T02:36:42.563Z,81.21
2023-01-08T02:39:16.667Z,81.42
2023-01-08T02:42:05.497Z,81.11
2023-01-08T02:45:13.421Z,81.21
2023-01-08T02:47:51.688Z,80.43
2023-01-08T02:50:37.604Z,80.18
2023-01-08T02:53:15.845Z,80.46
2023-01-08T02:55:46.641Z,80.53
2023-01-08T02:58:14.313Z,80.94
2023-01-08T03:00:43.238Z,80.41
2023-01-08T03:03:18.674Z,80.71
2023-01-08T03:05:49.879Z,81.42
2023-01-08T03:08:19.565Z,81.77
2023-01-08T03:10:52.021Z,81.57
2023-01-08T03:13:26.328Z,81.94
2023-01-08T03:15:58.911Z,82.08
2023-01-08T03:18:37.544Z,81.84
2023-01-08T03:21:06.866Z,82.38
2023-01-08T03:23:37.219Z,82.74
2023-01-08T03:26:06.886Z,83.31
2023-01-08T03:28:41.585Z,83.43
2023-01-08T03:31:09.298Z,82.97
2023-01-08T03:33:37.871Z,82.65
2023-01-08T03:36:06.447Z,82.19
2023-01-08T03:38:40.035Z,82.70
2023-01-08T03:41:12.024Z,83.14
2023-01-08T03:43:38.839Z,82.86
2023-01-08T03:46:11.945Z,82.54
2023-01-08T03:48:39.259Z,82.95
2023-01-08T03:51:08.412Z,83.15
2023-01-08T03:53:35.664Z,82.95
2023-01-08T03:56:02.747Z,82.94
2023-01-08T03:58:29.833Z,82.32
2023-01-08T04:00:56.439Z,82.61
2023-01-08T04:03:24.577Z,82.82
2023-01-08T04:05:51.100Z,83.06
2023-01-08T04:08:18.109Z,83.28
2023-01-08T04:10:44.873Z,83.68
2023-01-08T04:13:11.659Z,82.81
2023-01-08T04:15:38.331Z,83.41
2023-01-08T04:18:05.069Z,83.57
2023-01-08T04:20:31.636Z,83.35
2023-01-08T04:22:58.675Z,83.51
2023-01-08T04:25:25.885Z,83.58
2023-01-08T04:27:52.597Z,84.49
2023-01-08T04:30:19.183Z,83.94
2023-01-08T04:32:46.875Z,84.18
2023-01-08T04:35:13.454Z,84.02
2023-01-08T04:37:40.334Z,84.56
2023-01-08T04:40:07.400Z,83.60
2023-01-08T04:42:34.502Z,83.13
2023-01-08T04:45:01.254Z,83.24
2023-01-08T04:47:28.019Z,83.42
2023-01-08T04:49:54.614Z,82.70
2023-01-08T04:52:21.171Z,82.16
2023-01-08T04:54:47.777Z,83.02
2023-01-08T04:57:14.356Z,82.37
2023-01-08T04:59:41.089Z,82.30
2023-01-08T05:02:07.878Z,82.80
2023-01-08T05:04:34.540Z,83.56
2023-01-08T05:07:01.407Z,82.27
2023-01-08T05:09:28.363Z,82.80
2023-01-08T05:11:54.936Z,82.03
2023-01-08T05:14:22.236Z,81.87
2023-01-08T05:16:48.780Z,81.67
2023-01-08T05:19:15.570Z,81.55
2023-01-08T05:21:42.283Z,83.00
2023-01-08T05:24:09.476Z,82.32
2023-01-08T05:26:36.954Z,83.08
2023-01-08T05:29:03.918Z,82.48
2023-01-08T05:31:30.861Z,82.48
2023-01-08T05:33:58.744Z,82.94
2023-01-08T05:36:25.263Z,82.85
2023-01-08T05:38:52.110Z,83.92
2023-01-08T05:41:18.918Z,82.98
2023-01-08T05:43:46.043Z,83.46
2023-01-08T05:46:12.837Z,82.38
2023-01-08T05:48:39.606Z,82.38
2023-01-08T05:51:06.388Z,83.08
2023-01-08T05:53:33.466Z,82.79
2023-01-08T05:56:09.102Z,82.68
2023-01-08T05:58:36.904Z,82.48
2023-01-08T06:01:10.136Z,82.14
2023-01-08T06:03:38.323Z,81.39
2023-01-08T06:06:07.118Z,81.90
2023-01-08T06:08:34.326Z,81.47
2023-01-08T06:11:02.722Z,82.13
2023-01-08T06:13:30.310Z,82.23
2023-01-08T06:16:01.119Z,82.23
2023-01-08T06:18:29.905Z,82.08
2023-01-08T06:20:56.926Z,82.00
2023-01-08T06:23:24.220Z,82.34
2023-01-08T06:25:55.223Z,82.01
2023-01-08T06:28:22.686Z,80.72
2023-01-08T06:30:49.942Z,81.06
2023-01-08T06:33:20.924Z,81.00
2023-01-08T06:35:48.137Z,81.82
2023-01-08T06:38:14.968Z,82.87
2023-01-08T06:40:41.727Z,83.45
2023-01-08T06:43:08.739Z,84.05
2023-01-08T06:45:35.484Z,85.22
2023-01-08T06:48:03.774Z,84.24
2023-01-08T06:50:33.085Z,86.19
2023-01-08T06:53:00.489Z,85.95
2023-01-08T06:55:27.084Z,87.68
2023-01-08T06:57:58.310Z,87.28
2023-01-08T07:00:27.260Z,86.38
2023-01-08T07:02:55.217Z,86.33
2023-01-08T07:05:23.231Z,87.29
2023-01-08T07:07:50.319Z,86.22
2023-01-08T07:10:19.796Z,85.82
2023-01-08T07:12:47.824Z,85.71
2023-01-08T07:15:15.851Z,86.03
2023-01-08T07:17:43.274Z,86.21
2023-01-08T07:20:10.713Z,85.93
2023-01-08T07:22:38.158Z,86.68
2023-01-08T07:25:05.394Z,87.07
2023-01-08T07:27:32.355Z,87.58
2023-01-08T07:29:59.011Z,88.53
2023-01-08T07:32:26.151Z,89.07
2023-01-08T07:34:54.562Z,89.89
2023-01-08T07:37:21.259Z,89.68
2023-01-08T07:39:47.829Z,90.07
2023-01-08T07:42:14.451Z,89.53
2023-01-08T07:44:41.706Z,90.11
2023-01-08T07:47:08.466Z,90.60
2023-01-08T07:49:35.741Z,91.12
2023-01-08T07:52:02.463Z,91.28
2023-01-08T07:54:29.496Z,91.40
2023-01-08T07:56:56.125Z,91.54
2023-01-08T07:59:23.278Z,91.00
2023-01-08T08:01:49.996Z,90.70
2023-01-08T08:04:17.068Z,90.78
2023-01-08T08:06:43.727Z,91.13
2023-01-08T08:09:10.528Z,91.37
2023-01-08T08:11:38.406Z,90.95
2023-01-08T08:14:05.278Z,89.32
2023-01-08T08:16:32.129Z,90.73
2023-01-08T08:18:59.868Z,90.85
2023-01-08T08:21:26.761Z,90.21
2023-01-08T08:23:53.468Z,87.71
2023-01-08T08:26:20.247Z,89.45
2023-01-08T08:28:47.037Z,86.73
2023-01-08T08:31:14.040Z,88.92
2023-01-08T08:33:40.834Z,89.10
2023-01-08T08:36:08.129Z,89.97
2023-01-08T08:38:36.448Z,89.97
2023-01-08T08:41:03.537Z,89.82
2023-01-08T08:43:30.208Z,90.69
2023-01-08T08:45:57.079Z,90.12
2023-01-08T08:48:24.521Z,89.77
2023-01-08T08:50:51.732Z,89.46
2023-01-08T08:53:18.853Z,89.53
2023-01-08T08:55:45.501Z,89.87
2023-01-08T08:58:13.461Z,89.85
2023-01-08T09:00:42.252Z,89.95
2023-01-08T09:03:14.788Z,89.52
2023-01-08T09:05:42.966Z,89.27
2023-01-08T09:08:10.128Z,89.45
2023-01-08T09:10:41.408Z,90.11
2023-01-08T09:13:08.814Z,89.81
2023-01-08T09:15:37.069Z,90.41
2023-01-08T09:18:04.598Z,90.85
2023-01-08T09:20:31.833Z,90.33
2023-01-08T09:23:00.195Z,90.07
2023-01-08T09:25:27.696Z,89.75
2023-01-08T09:28:07.255Z,88.68
2023-01-08T09:30:35.277Z,88.30
2023-01-08T09:33:03.635Z,87.06
2023-01-08T09:35:34.031Z,88.44
2023-01-08T09:38:01.254Z,87.95
2023-01-08T09:40:33.695Z,87.55
2023-01-08T09:43:03.256Z,85.75
2023-01-08T09:45:39.337Z,86.37
2023-01-08T09:48:12.801Z,87.21
2023-01-08T09:50:39.638Z,86.46
2023-01-08T09:53:15.377Z,84.85
2023-01-08T09:55:43.140Z,85.23
2023-01-08T09:58:36.766Z,84.18
2023-01-08T10:01:05.477Z,84.24
2023-01-08T10:03:45.096Z,82.07
2023-01-08T10:06:14.206Z,82.27
2023-01-08T10:08:41.426Z,82.54
2023-01-08T10:11:09.726Z,82.75
2023-01-08T10:13:40.170Z,81.47
2023-01-08T10:16:10.251Z,82.71
2023-01-08T10:18:38.216Z,82.06
2023-01-08T10:21:05.838Z,81.37
2023-01-08T10:23:32.732Z,81.13
2023-01-08T10:26:02.001Z,81.45
2023-01-08T10:28:32.426Z,80.22
2023-01-08T10:31:06.002Z,78.94
2023-01-08T10:33:43.780Z,78.18
2023-01-08T10:36:13.732Z,77.22
2023-01-08T10:38:52.589Z,78.67
2023-01-08T10:41:21.000Z,78.80
2023-01-08T10:43:58.859Z,77.73
2023-01-08T10:46:41.998Z,78.13
2023-01-08T10:49:26.316Z,77.74
2023-01-08T10:51:53.848Z,78.17
2023-01-08T10:54:37.833Z,76.84
2023-01-08T10:57:20.984Z,76.82
2023-01-08T10:59:47.692Z,77.65
2023-01-08T11:02:33.097Z,76.64
2023-01-08T11:05:01.402Z,76.90
2023-01-08T11:07:29.048Z,76.92
2023-01-08T11:09:55.909Z,77.59
2023-01-08T11:12:34.248Z,76.60
2023-01-08T11:15:01.758Z,77.56
2023-01-08T11:17:29.607Z,77.26
2023-01-08T11:20:24.087Z,76.83
2023-01-08T11:22:51.063Z,76.34
2023-01-08T11:25:28.597Z,76.20
2023-01-08T11:27:56.985Z,76.33
2023-01-08T11:30:27.896Z,76.40
2023-01-08T11:33:04.509Z,75.45
2023-01-08T11:35:44.913Z,75.22
2023-01-08T11:38:13.067Z,75.44
2023-01-08T11:40:51.633Z,75.06
2023-01-08T11:43:24.804Z,75.21
2023-01-08T11:46:13.541Z,76.07
2023-01-08T11:49:13.592Z,75.78
2023-01-08T11:52:09.126Z,74.72
2023-01-08T11:55:06.576Z,71.33
2023-01-08T11:57:56.159Z,70.25
2023-01-08T12:00:58.335Z,73.42
2023-01-08T12:04:10.526Z,75.40
2023-01-08T12:07:08.772Z,76.12
2023-01-08T12:09:47.033Z,72.81
2023-01-08T12:12:59.537Z,73.35
2023-01-08T12:15:44.302Z,75.48
2023-01-08T12:18:16.975Z,74.92
2023-01-08T12:20:53.923Z,76.17
2023-01-08T12:23:49.131Z,76.41
2023-01-08T12:26:24.150Z,76.89
2023-01-08T12:29:13.580Z,77.07
2023-01-08T12:32:05.077Z,76.71
2023-01-08T12:34:53.193Z,76.53
2023-01-08T12:37:46.102Z,77.67
2023-01-08T12:40:22.107Z,77.76
2023-01-08T12:43:00.009Z,77.95
2023-01-08T12:45:48.943Z,77.86
2023-01-08T12:48:19.409Z,75.51
2023-01-08T12:51:18.045Z,74.28
2023-01-08T12:54:07.177Z,76.19
2023-01-08T12:56:52.149Z,73.54
2023-01-08T12:59:55.922Z,74.28
2023-01-08T13:02:33.820Z,74.53
2023-01-08T13:05:32.105Z,73.89
2023-01-08T13:08:21.775Z,71.10
2023-01-08T13:10:53.696Z,71.62
2023-01-08T13:13:36.708Z,71.62
2023-01-08T13:16:07.949Z,71.30
2023-01-08T13:18:35.423Z,69.28
2023-01-08T13:21:04.186Z,68.28
2023-01-08T13:23:35.047Z,69.40
2023-01-08T13:26:06.588Z,69.37
2023-01-08T13:28:36.945Z,68.52
2023-01-08T13:31:20.416Z,70.75
2023-01-08T13:33:49.114Z,70.55
2023-01-08T13:36:23.587Z,70.33
2023-01-08T13:39:22.305Z,71.63
2023-01-08T13:42:29.935Z,72.14
2023-01-08T13:45:00.915Z,73.30
2023-01-08T13:47:32.998Z,72.09
2023-01-08T13:50:14.530Z,72.65
2023-01-08T13:52:45.147Z,72.18
2023-01-08T13:55:16.580Z,73.55
2023-01-08T13:57:53.573Z,72.90
2023-01-08T14:00:28.191Z,72.58
2023-01-08T14:02:55.568Z,72.51
2023-01-08T14:05:29.767Z,71.00
2023-01-08T14:07:57.675Z,71.33
2023-01-08T14:10:27.017Z,69.38
2023-01-08T14:13:08.693Z,70.77
2023-01-08T14:15:35.766Z,72.02
2023-01-08T14:18:04.689Z,71.78
2023-01-08T14:20:34.693Z,71.38
2023-01-08T14:23:08.115Z,71.59
2023-01-08T14:25:34.844Z,72.71
2023-01-08T14:28:05.339Z,72.11
2023-01-08T14:30:33.320Z,72.14
2023-01-08T14:33:01.521Z,72.64
2023-01-08T14:35:34.575Z,71.93
2023-01-08T14:38:03.029Z,71.13
2023-01-08T14:40:38.232Z,72.14
2023-01-08T14:43:11.242Z,71.23
2023-01-08T14:45:45.021Z,70.04
2023-01-08T14:48:19.034Z,72.29
2023-01-08T14:51:08.092Z,72.31
2023-01-08T14:53:44.122Z,72.19
2023-01-08T14:56:17.514Z,72.43
2023-01-08T14:58:45.553Z,73.92
2023-01-08T15:01:20.794Z,72.53
2023-01-08T15:03:49.709Z,73.68
2023-01-08T15:06:28.839Z,74.19
2023-01-08T15:08:57.568Z,74.57
2023-01-08T15:11:31.182Z,75.59
2023-01-08T15:13:59.103Z,75.63
2023-01-08T15:16:39.128Z,76.03
2023-01-08T15:19:12.077Z,75.30
2023-01-08T15:21:39.643Z,75.23
2023-01-08T15:24:07.546Z,76.18
2023-01-08T15:26:34.495Z,75.20
2023-01-08T15:29:18.682Z,75.16
2023-01-08T15:31:48.464Z,76.37
2023-01-08T15:34:18.940Z,75.49
2023-01-08T15:36:46.746Z,76.42
2023-01-08T15:39:14.067Z,77.37
2023-01-08T15:41:59.513Z,77.49
2023-01-08T15:44:26.413Z,76.95
2023-01-08T15:46:53.608Z,77.66
2023-01-08T15:49:20.737Z,77.83
2023-01-08T15:51:50.716Z,77.36
2023-01-08T15:54:21.158Z,78.02
2023-01-08T15:56:47.843Z,77.65
2023-01-08T15:59:14.568Z,78.44
2023-01-08T16:01:41.400Z,78.37
2023-01-08T16:04:08.501Z,78.51
2023-01-08T16:06:36.246Z,78.26
2023-01-08T16:09:03.389Z,78.51
2023-01-08T16:11:30.562Z,78.01
2023-01-08T16:13:57.064Z,78.80
2023-01-08T16:16:24.082Z,78.79
2023-01-08T16:18:52.400Z,79.20
2023-01-08T16:21:19.266Z,79.25
2023-01-08T16:23:46.185Z,79.47
2023-01-08T16:26:14.864Z,80.10
2023-01-08T16:28:43.090Z,79.42
2023-01-08T16:31:10.553Z,79.74
2023-01-08T16:33:38.284Z,80.54
2023-01-08T16:36:08.283Z,80.09
2023-01-08T16:38:36.183Z,79.44
2023-01-08T16:41:04.723Z,78.89
2023-01-08T16:43:38.153Z,79.21
2023-01-08T16:46:11.576Z,80.06
2023-01-08T16:48:38.454Z,79.71
2023-01-08T16:51:05.581Z,80.24
2023-01-08T16:53:33.305Z,79.85
2023-01-08T16:56:00.208Z,78.91
2023-01-08T16:58:29.345Z,78.74
2023-01-08T17:00:57.003Z,77.93
2023-01-08T17:03:24.084Z,79.36
2023-01-08T17:05:50.702Z,76.61
2023-01-08T17:08:19.824Z,77.68
2023-01-08T17:10:47.793Z,78.36
2023-01-08T17:13:14.850Z,79.69
2023-01-08T17:15:41.389Z,79.08
2023-01-08T17:18:08.118Z,78.39
2023-01-08T17:20:36.179Z,78.90
2023-01-08T17:23:03.275Z,80.04
2023-01-08T17:25:29.824Z,79.22
2023-01-08T17:27:56.606Z,79.42
2023-01-08T17:30:23.594Z,79.28
2023-01-08T17:32:50.771Z,79.35
2023-01-08T17:35:17.666Z,79.84
2023-01-08T17:37:44.566Z,79.96
2023-01-08T17:40:11.761Z,78.94
2023-01-08T17:42:39.308Z,78.94
2023-01-08T17:45:07.203Z,78.67
2023-01-08T17:47:36.468Z,79.92
2023-01-08T17:50:05.723Z,79.94
2023-01-08T17:52:33.152Z,79.90
2023-01-08T17:55:00.139Z,80.46
2023-01-08T17:57:27.121Z,80.01
2023-01-08T17:59:53.985Z,78.47
2023-01-08T18:02:20.952Z,79.51
2023-01-08T18:04:49.828Z,80.05
2023-01-08T18:07:17.158Z,80.41
2023-01-08T18:09:45.212Z,81.30
2023-01-08T18:12:12.038Z,79.82
2023-01-08T18:14:39.684Z,79.27
2023-01-08T18:17:06.362Z,79.32
2023-01-08T18:19:33.557Z,79.08
2023-01-08T18:22:00.930Z,80.28
2023-01-08T18:24:28.130Z,80.68
2023-01-08T18:26:57.978Z,79.97
2023-01-08T18:29:24.910Z,80.22
2023-01-08T18:31:51.549Z,80.49
2023-01-08T18:34:18.347Z,78.87
2023-01-08T18:36:45.173Z,78.48
2023-01-08T18:39:12.648Z,78.61
2023-01-08T18:41:58.626Z,79.17
2023-01-08T18:44:25.663Z,79.26
2023-01-08T18:46:52.478Z,79.04
2023-01-08T18:49:20.247Z,79.51
2023-01-08T18:51:46.794Z,79.72
2023-01-08T18:54:13.522Z,79.53
2023-01-08T18:56:40.216Z,78.16
2023-01-08T18:59:07.512Z,79.23
2023-01-08T19:01:36.134Z,79.18
2023-01-08T19:04:03.868Z,79.47
2023-01-08T19:06:31.083Z,78.38
2023-01-08T19:09:00.929Z,78.80
2023-01-08T19:11:28.089Z,78.08
2023-01-08T19:13:55.766Z,78.08
2023-01-08T19:16:23.512Z,77.26
2023-01-08T19:18:50.739Z,77.86
2023-01-08T19:21:19.414Z,77.41
2023-01-08T19:23:47.866Z,77.48
2023-01-08T19:26:15.184Z,77.67
2023-01-08T19:28:43.654Z,77.11
2023-01-08T19:31:15.859Z,76.89
2023-01-08T19:33:44.493Z,77.08
2023-01-08T19:36:14.060Z,75.69
2023-01-08T19:38:41.563Z,76.45
2023-01-08T19:41:28.823Z,76.01
2023-01-08T19:43:55.691Z,77.07
2023-01-08T19:46:22.744Z,76.72
2023-01-08T19:48:49.604Z,76.93
2023-01-08T19:51:16.542Z,76.03
2023-01-08T19:53:43.783Z,76.33
2023-01-08T19:56:13.989Z,75.74
2023-01-08T19:58:41.154Z,76.61
2023-01-08T20:01:10.355Z,76.52
2023-01-08T20:03:37.974Z,75.98
2023-01-08T20:06:11.075Z,75.90
2023-01-08T20:08:38.343Z,76.69
2023-01-08T20:11:10.736Z,76.36
2023-01-08T20:13:39.190Z,77.11
2023-01-08T20:16:09.344Z,76.94
2023-01-08T20:18:37.155Z,76.57
2023-01-08T20:21:07.818Z,76.75
2023-01-08T20:23:36.405Z,76.62
2023-01-08T20:26:09.162Z,75.75
2023-01-08T20:28:37.712Z,76.48
2023-01-08T20:31:13.880Z,76.31
2023-01-08T20:33:41.913Z,75.82
2023-01-08T20:36:14.692Z,76.31
2023-01-08T20:38:43.471Z,75.92
2023-01-08T20:41:11.455Z,76.56
2023-01-08T20:43:39.754Z,76.63
2023-01-08T20:46:09.732Z,75.86
2023-01-08T20:48:42.969Z,76.96
2023-01-08T20:51:13.405Z,76.52
2023-01-08T20:53:41.755Z,76.03
2023-01-08T20:56:15.139Z,76.51
2023-01-08T20:58:49.562Z,76.69
2023-01-08T21:01:25.786Z,77.37
2023-01-08T21:03:55.453Z,77.08
2023-01-08T21:06:25.385Z,76.19
2023-01-08T21:08:55.708Z,76.70
2023-01-08T21:11:23.831Z,76.74
2023-01-08T21:13:51.450Z,76.82
2023-01-08T21:16:22.937Z,76.13
2023-01-08T21:18:51.050Z,76.47
2023-01-08T21:21:20.679Z,77.14
2023-01-08T21:23:48.903Z,76.14
2023-01-08T21:26:16.781Z,76.47
2023-01-08T21:28:45.023Z,77.44
2023-01-08T21:31:18.745Z,76.13
2023-01-08T21:33:51.205Z,75.98
2023-01-08T21:36:21.114Z,76.68
2023-01-08T21:38:49.382Z,76.35
2023-01-08T21:41:39.366Z,76.29
2023-01-08T21:44:40.140Z,77.23
2023-01-08T21:47:10.439Z,77.41
2023-01-08T21:49:38.257Z,77.00
2023-01-08T21:52:24.694Z,77.03
2023-01-08T21:54:52.679Z,77.03
2023-01-08T21:57:19.657Z,77.26
2023-01-08T21:59:50.015Z,78.37
2023-01-08T22:02:18.929Z,77.91
2023-01-08T22:04:46.455Z,77.76
2023-01-08T22:07:14.501Z,78.25
2023-01-08T22:09:41.894Z,79.52
2023-01-08T22:12:08.871Z,78.80
2023-01-08T22:14:36.158Z,79.85
2023-01-08T22:17:04.072Z,81.14
2023-01-08T22:19:31.295Z,82.77
2023-01-08T22:21:58.254Z,82.53
2023-01-08T22:24:25.837Z,83.93
2023-01-08T22:26:52.643Z,84.91
2023-01-08T22:29:19.938Z,85.51
2023-01-08T22:31:46.708Z,86.74
2023-01-08T22:34:17.083Z,86.96
2023-01-08T22:36:50.203Z,87.01
2023-01-08T22:39:17.787Z,87.30
2023-01-08T22:41:45.186Z,87.83
2023-01-08T22:44:13.009Z,88.22
2023-01-08T22:46:39.988Z,87.71
2023-01-08T22:49:09.882Z,87.58
2023-01-08T22:51:36.550Z,88.28
2023-01-08T22:54:04.360Z,88.53
2023-01-08T22:56:31.100Z,88.23
2023-01-08T22:58:58.837Z,89.33
2023-01-08T23:01:29.921Z,88.99
2023-01-08T23:03:59.496Z,88.93
2023-01-08T23:06:29.333Z,89.64
2023-01-08T23:08:56.613Z,88.63
2023-01-08T23:11:24.199Z,89.25
2023-01-08T23:13:51.382Z,89.73
2023-01-08T23:16:22.434Z,90.64
2023-01-08T23:18:51.501Z,90.40
2023-01-08T23:21:20.351Z,90.26
2023-01-08T23:23:48.247Z,90.14
2023-01-08T23:26:19.369Z,90.09
2023-01-08T23:28:47.206Z,90.12
2023-01-08T23:31:16.798Z,90.22
2023-01-08T23:33:43.527Z,89.17
2023-01-08T23:36:12.248Z,89.99
2023-01-08T23:38:39.223Z,90.03
2023-01-08T23:41:07.109Z,90.72
2023-01-08T23:43:34.076Z,90.49
2023-01-08T23:46:05.414Z,90.56
2023-01-08T23:48:32.768Z,90.48
2023-01-08T23:50:59.869Z,90.76
2023-01-08T23:53:27.517Z,90.36
2023-01-08T23:55:54.848Z,90.58
2023-01-08T23:58:22.633Z,90.75
